Penobscot, ME (04476)

2:43 PM EDT on April 27, 2017 (GMT -0400)
Northern Bay | | Change Station

Elev 0 ft 44.47 °N, 68.70 °W | Updated 9 seconds ago

Overcast
Overcast
59.7 °F
Feels Like 59.7 °F
N
0.9
Wind Variable Wind from SSE
Gusts 2.5 mph

Today
High -- | Low -- °F
--% Chance of Precip.
Yesterday
High -- | Low -- °F
Precip. -- in
Pressure 29.97 in
Visibility 2.5 miles
Clouds Overcast 300 ft
Dew Point 54 °F
Humidity 83%
Rainfall 0.15 in
Snow Depth Not available.
5:31 AM 7:34 PM
New Moon, 2% visible
SPECI KBHB 271833Z AUTO 08006KT 2 1/2SM BR OVC003 11/10 A2997 RMK AO2 VIS 1 3/4V4
Pressure 29.97 in
Visibility 2.5 miles
Clouds Overcast 300 ft
Dew Point 54 °F
Humidity 83%
Rainfall 0.15 in
Snow Depth Not available.
5:31 AM 7:34 PM
New Moon, 2% visible
SPECI KBHB 271833Z AUTO 08006KT 2 1/2SM BR OVC003 11/10 A2997 RMK AO2 VIS 1 3/4V4

Get Severe Weather Alerts

Thanks for signing up!

Be on the lookout for a verification email in your inbox.

You'll start receiving the daily forecast at 8 AM.

×

10-Day Weather Forecast

Almanac

Astronomy

Apr. 27, 2017 Rise Set
Actual Time
Civil Twilight
Nautical Twilight
Astronomical Twilight
Moon
Length of Visible Light
Length of Day
Tomorrow will be .
, % of the Moon is Illuminated

Today's Extremes

State Highs State Lows

Community

WunderPhotos

WunderBlog® & News

Nearby

Air Quality

  Air Quality AQ Index Pollutant
Not available.

Snow Depth

Station Depth Elevation

Earthquake Activity

City Distance Mag. Time & Date
Minimum magnitude displayed is 2.5.

Coastal Water Temperatures

Place Temperature

Stations

Nearby Weather Stations

Station Location Temp. Windchill Dew Point Humidity Wind Precip. Elev Updated Type
                   

Watches & Warnings

There are currently no watches in effect.